Terminal Aerodrome Forecast
Issued by NWS

Home | Current Version | Previous Version | Text Only | Print | Product List | Glossary On
Versions: 1 2 3 4 5 6 7 8 9 10 11 12
000
FTUS45 KRIW 291122
TAFCPR
TAF
KCPR 291122Z 2912/3012 22008KT P6SM FEW120 SCT200
     FM291900 23015G22KT P6SM VCSH SCT080 BKN120
     FM300100 21012KT P6SM BKN090=

USA.gov is the U.S. government's official web portal to all federal, state and local government web resources and services.